Copeville, Texas
Current Conditions -  °F | °C
As of 9:35 AM on Friday 24 Oct 2014 (Local Time) from KF46 Reporting Station
Scattered Clouds Scattered Clouds  
Wind Chill: 63°   Ceiling: Unl
Heat Index: 63°   Visibility: 10mi
Dew Point: 55°   Wind: 7mph
Humidity: 76%   Direction: 160°SSE
Pressure: 30.17"   Gusts: NA
Location:  33.08°N, 96.42°W
Report Text: KF46 241435Z AUTO 16006KT 10SM SCT050 17/13 A3017 RMK AO2 T01720129
Loading
Personal Weather Stations






























Interactive Weather Map
Tropical Storm Tracking
New forecast layout! Learn more

10-Day Weather Forecast

Advertisements
Track Severe Weather on mobile